sensor_id;sensor_type;location;lat;lon;timestamp;P1;durP1;ratioP1;P2;durP2;ratioP2
4873;SDS011;2451;49.970;9.068;2022-11-14T00:02:24;16.05;;;11.85;;
4873;SDS011;2451;49.970;9.068;2022-11-14T00:04:50;16.83;;;11.05;;
4873;SDS011;2451;49.970;9.068;2022-11-14T00:07:16;16.25;;;11.48;;
4873;SDS011;2451;49.970;9.068;2022-11-14T00:09:41;17.23;;;10.77;;
4873;SDS011;2451;49.970;9.068;2022-11-14T00:12:10;18.77;;;11.95;;
4873;SDS011;2451;49.970;9.068;2022-11-14T00:14:36;18.42;;;12.65;;
4873;SDS011;2451;49.970;9.068;2022-11-14T00:17:02;16.65;;;10.38;;
4873;SDS011;2451;49.970;9.068;2022-11-14T00:19:28;15.27;;;10.90;;
4873;SDS011;2451;49.970;9.068;2022-11-14T00:21:54;18.88;;;11.35;;
4873;SDS011;2451;49.970;9.068;2022-11-14T00:24:20;18.85;;;11.32;;
4873;SDS011;2451;49.970;9.068;2022-11-14T00:26:45;14.75;;;10.40;;
4873;SDS011;2451;49.970;9.068;2022-11-14T00:29:12;17.58;;;10.50;;
4873;SDS011;2451;49.970;9.068;2022-11-14T00:31:38;16.33;;;10.25;;
4873;SDS011;2451;49.970;9.068;2022-11-14T00:34:04;15.57;;;10.48;;
4873;SDS011;2451;49.970;9.068;2022-11-14T00:36:30;17.60;;;10.50;;
4873;SDS011;2451;49.970;9.068;2022-11-14T00:38:56;18.27;;;10.43;;
4873;SDS011;2451;49.970;9.068;2022-11-14T00:41:22;15.73;;;10.88;;
4873;SDS011;2451;49.970;9.068;2022-11-14T00:43:47;15.80;;;10.02;;
4873;SDS011;2451;49.970;9.068;2022-11-14T00:46:13;15.98;;;10.30;;
4873;SDS011;2451;49.970;9.068;2022-11-14T00:48:39;19.70;;;11.27;;
4873;SDS011;2451;49.970;9.068;2022-11-14T00:51:04;17.75;;;11.10;;
4873;SDS011;2451;49.970;9.068;2022-11-14T00:53:30;14.93;;;10.60;;
4873;SDS011;2451;49.970;9.068;2022-11-14T00:55:56;15.30;;;10.38;;
4873;SDS011;2451;49.970;9.068;2022-11-14T00:58:21;15.88;;;10.63;;
4873;SDS011;2451;49.970;9.068;2022-11-14T01:00:47;18.10;;;10.23;;
4873;SDS011;2451;49.970;9.068;2022-11-14T01:03:12;14.68;;;10.60;;
4873;SDS011;2451;49.970;9.068;2022-11-14T01:05:45;16.40;;;11.07;;
4873;SDS011;2451;49.970;9.068;2022-11-14T01:08:14;17.23;;;10.80;;
4873;SDS011;2451;49.970;9.068;2022-11-14T01:10:41;14.23;;;10.20;;
4873;SDS011;2451;49.970;9.068;2022-11-14T01:13:09;14.50;;;9.60;;
4873;SDS011;2451;49.970;9.068;2022-11-14T01:15:39;13.18;;;8.93;;
4873;SDS011;2451;49.970;9.068;2022-11-14T01:18:05;13.02;;;9.00;;
4873;SDS011;2451;49.970;9.068;2022-11-14T01:20:31;14.32;;;8.93;;
4873;SDS011;2451;49.970;9.068;2022-11-14T01:22:56;12.20;;;9.00;;
4873;SDS011;2451;49.970;9.068;2022-11-14T01:25:22;17.05;;;11.05;;
4873;SDS011;2451;49.970;9.068;2022-11-14T01:27:48;14.40;;;10.13;;
4873;SDS011;2451;49.970;9.068;2022-11-14T01:30:13;13.10;;;9.00;;
4873;SDS011;2451;49.970;9.068;2022-11-14T01:32:39;13.52;;;8.98;;
4873;SDS011;2451;49.970;9.068;2022-11-14T01:35:05;12.75;;;8.60;;
4873;SDS011;2451;49.970;9.068;2022-11-14T01:37:30;14.15;;;9.23;;
4873;SDS011;2451;49.970;9.068;2022-11-14T01:39:56;16.67;;;10.00;;
4873;SDS011;2451;49.970;9.068;2022-11-14T01:42:21;15.95;;;9.85;;
4873;SDS011;2451;49.970;9.068;2022-11-14T01:47:18;16.70;;;10.95;;
4873;SDS011;2451;49.970;9.068;2022-11-14T01:49:47;16.77;;;10.80;;
4873;SDS011;2451;49.970;9.068;2022-11-14T01:52:29;16.67;;;11.32;;
4873;SDS011;2451;49.970;9.068;2022-11-14T01:54:59;16.27;;;11.50;;
4873;SDS011;2451;49.970;9.068;2022-11-14T01:57:31;15.70;;;10.32;;
4873;SDS011;2451;49.970;9.068;2022-11-14T02:00:03;16.35;;;10.48;;
4873;SDS011;2451;49.970;9.068;2022-11-14T02:02:31;15.35;;;10.65;;
4873;SDS011;2451;49.970;9.068;2022-11-14T02:05:02;16.20;;;11.15;;
4873;SDS011;2451;49.970;9.068;2022-11-14T02:07:40;18.35;;;12.18;;
4873;SDS011;2451;49.970;9.068;2022-11-14T02:10:18;19.15;;;12.57;;
4873;SDS011;2451;49.970;9.068;2022-11-14T02:12:45;16.60;;;12.27;;
4873;SDS011;2451;49.970;9.068;2022-11-14T02:15:11;18.50;;;12.90;;
4873;SDS011;2451;49.970;9.068;2022-11-14T02:17:37;21.17;;;13.15;;
4873;SDS011;2451;49.970;9.068;2022-11-14T02:22:31;15.18;;;10.63;;
4873;SDS011;2451;49.970;9.068;2022-11-14T02:24:57;18.10;;;10.82;;
4873;SDS011;2451;49.970;9.068;2022-11-14T02:27:23;15.57;;;10.95;;
4873;SDS011;2451;49.970;9.068;2022-11-14T02:29:48;16.48;;;10.45;;
4873;SDS011;2451;49.970;9.068;2022-11-14T02:32:14;19.30;;;10.85;;
4873;SDS011;2451;49.970;9.068;2022-11-14T02:34:39;16.42;;;10.80;;
4873;SDS011;2451;49.970;9.068;2022-11-14T02:37:05;16.80;;;10.50;;
4873;SDS011;2451;49.970;9.068;2022-11-14T02:39:31;19.17;;;11.00;;
4873;SDS011;2451;49.970;9.068;2022-11-14T02:41:57;16.48;;;10.88;;
4873;SDS011;2451;49.970;9.068;2022-11-14T02:44:23;16.55;;;11.00;;
4873;SDS011;2451;49.970;9.068;2022-11-14T02:46:49;16.75;;;11.40;;
4873;SDS011;2451;49.970;9.068;2022-11-14T02:49:14;17.60;;;12.15;;
4873;SDS011;2451;49.970;9.068;2022-11-14T02:51:40;20.02;;;11.15;;
4873;SDS011;2451;49.970;9.068;2022-11-14T02:54:06;16.77;;;10.00;;
4873;SDS011;2451;49.970;9.068;2022-11-14T02:56:32;18.75;;;10.80;;
4873;SDS011;2451;49.970;9.068;2022-11-14T02:58:58;17.45;;;10.35;;
4873;SDS011;2451;49.970;9.068;2022-11-14T03:01:23;16.70;;;10.25;;
4873;SDS011;2451;49.970;9.068;2022-11-14T03:03:49;14.77;;;10.25;;
4873;SDS011;2451;49.970;9.068;2022-11-14T03:06:14;13.93;;;9.90;;
4873;SDS011;2451;49.970;9.068;2022-11-14T03:08:40;15.95;;;10.18;;
4873;SDS011;2451;49.970;9.068;2022-11-14T03:11:06;15.30;;;9.65;;
4873;SDS011;2451;49.970;9.068;2022-11-14T03:13:33;14.85;;;9.95;;
4873;SDS011;2451;49.970;9.068;2022-11-14T03:16:06;15.63;;;9.63;;
4873;SDS011;2451;49.970;9.068;2022-11-14T03:18:35;17.35;;;10.25;;
4873;SDS011;2451;49.970;9.068;2022-11-14T03:21:08;15.07;;;9.82;;
4873;SDS011;2451;49.970;9.068;2022-11-14T03:23:42;16.40;;;10.60;;
4873;SDS011;2451;49.970;9.068;2022-11-14T03:26:09;18.48;;;12.13;;
4873;SDS011;2451;49.970;9.068;2022-11-14T03:28:36;17.58;;;11.63;;
4873;SDS011;2451;49.970;9.068;2022-11-14T03:31:02;17.65;;;11.70;;
4873;SDS011;2451;49.970;9.068;2022-11-14T03:33:28;19.10;;;12.38;;
4873;SDS011;2451;49.970;9.068;2022-11-14T03:35:54;15.77;;;11.02;;
4873;SDS011;2451;49.970;9.068;2022-11-14T03:38:19;16.95;;;11.57;;
4873;SDS011;2451;49.970;9.068;2022-11-14T03:40:49;18.83;;;11.60;;
4873;SDS011;2451;49.970;9.068;2022-11-14T03:43:15;16.98;;;11.52;;
4873;SDS011;2451;49.970;9.068;2022-11-14T03:45:41;16.70;;;10.70;;
4873;SDS011;2451;49.970;9.068;2022-11-14T03:48:07;16.58;;;11.13;;
4873;SDS011;2451;49.970;9.068;2022-11-14T03:50:33;17.95;;;12.05;;
4873;SDS011;2451;49.970;9.068;2022-11-14T03:52:58;18.20;;;11.75;;
4873;SDS011;2451;49.970;9.068;2022-11-14T03:55:24;18.75;;;12.57;;
4873;SDS011;2451;49.970;9.068;2022-11-14T03:57:53;18.55;;;12.20;;
4873;SDS011;2451;49.970;9.068;2022-11-14T04:00:18;18.13;;;12.13;;
4873;SDS011;2451;49.970;9.068;2022-11-14T04:02:44;17.58;;;12.18;;
4873;SDS011;2451;49.970;9.068;2022-11-14T04:05:11;19.05;;;12.57;;
4873;SDS011;2451;49.970;9.068;2022-11-14T04:07:37;18.15;;;12.13;;
4873;SDS011;2451;49.970;9.068;2022-11-14T04:10:02;18.20;;;12.02;;
4873;SDS011;2451;49.970;9.068;2022-11-14T04:12:28;20.85;;;13.43;;
4873;SDS011;2451;49.970;9.068;2022-11-14T04:14:54;19.98;;;12.35;;
4873;SDS011;2451;49.970;9.068;2022-11-14T04:17:19;21.35;;;13.45;;
4873;SDS011;2451;49.970;9.068;2022-11-14T04:19:45;22.77;;;14.48;;
4873;SDS011;2451;49.970;9.068;2022-11-14T04:22:10;21.98;;;13.60;;
4873;SDS011;2451;49.970;9.068;2022-11-14T04:24:36;18.08;;;12.63;;
4873;SDS011;2451;49.970;9.068;2022-11-14T04:27:02;19.52;;;12.70;;
4873;SDS011;2451;49.970;9.068;2022-11-14T04:29:27;20.73;;;12.88;;
4873;SDS011;2451;49.970;9.068;2022-11-14T04:31:53;20.52;;;12.18;;
4873;SDS011;2451;49.970;9.068;2022-11-14T04:34:18;16.77;;;11.18;;
4873;SDS011;2451;49.970;9.068;2022-11-14T04:36:44;19.20;;;11.00;;
4873;SDS011;2451;49.970;9.068;2022-11-14T04:39:09;17.80;;;11.07;;
4873;SDS011;2451;49.970;9.068;2022-11-14T04:41:35;16.88;;;11.18;;
4873;SDS011;2451;49.970;9.068;2022-11-14T04:44:00;18.67;;;12.02;;
4873;SDS011;2451;49.970;9.068;2022-11-14T04:46:26;19.35;;;12.45;;
4873;SDS011;2451;49.970;9.068;2022-11-14T04:48:52;24.25;;;14.48;;
4873;SDS011;2451;49.970;9.068;2022-11-14T04:51:17;21.65;;;14.18;;
4873;SDS011;2451;49.970;9.068;2022-11-14T04:53:43;22.58;;;14.18;;
4873;SDS011;2451;49.970;9.068;2022-11-14T04:56:09;22.90;;;14.45;;
4873;SDS011;2451;49.970;9.068;2022-11-14T04:58:34;25.20;;;15.65;;
4873;SDS011;2451;49.970;9.068;2022-11-14T05:01:06;19.95;;;14.32;;
4873;SDS011;2451;49.970;9.068;2022-11-14T05:03:36;22.60;;;13.88;;
4873;SDS011;2451;49.970;9.068;2022-11-14T05:06:02;23.08;;;14.40;;
4873;SDS011;2451;49.970;9.068;2022-11-14T05:08:28;25.88;;;14.82;;
4873;SDS011;2451;49.970;9.068;2022-11-14T05:10:54;22.92;;;14.45;;
4873;SDS011;2451;49.970;9.068;2022-11-14T05:13:20;25.80;;;16.58;;
4873;SDS011;2451;49.970;9.068;2022-11-14T05:15:45;27.73;;;16.88;;
4873;SDS011;2451;49.970;9.068;2022-11-14T05:18:11;25.13;;;17.17;;
4873;SDS011;2451;49.970;9.068;2022-11-14T05:20:37;26.80;;;16.60;;
4873;SDS011;2451;49.970;9.068;2022-11-14T05:23:02;24.67;;;16.33;;
4873;SDS011;2451;49.970;9.068;2022-11-14T05:25:28;24.98;;;15.18;;
4873;SDS011;2451;49.970;9.068;2022-11-14T05:27:54;25.95;;;16.55;;
4873;SDS011;2451;49.970;9.068;2022-11-14T05:30:20;27.40;;;16.63;;
4873;SDS011;2451;49.970;9.068;2022-11-14T05:32:45;26.33;;;16.92;;
4873;SDS011;2451;49.970;9.068;2022-11-14T05:35:11;25.60;;;16.50;;
4873;SDS011;2451;49.970;9.068;2022-11-14T05:37:37;24.92;;;16.48;;
4873;SDS011;2451;49.970;9.068;2022-11-14T05:40:03;27.27;;;16.88;;
4873;SDS011;2451;49.970;9.068;2022-11-14T05:42:29;28.13;;;17.05;;
4873;SDS011;2451;49.970;9.068;2022-11-14T05:44:54;30.17;;;17.92;;
4873;SDS011;2451;49.970;9.068;2022-11-14T05:47:20;30.55;;;17.88;;
4873;SDS011;2451;49.970;9.068;2022-11-14T05:49:45;30.67;;;18.48;;
4873;SDS011;2451;49.970;9.068;2022-11-14T05:52:11;32.50;;;18.95;;
4873;SDS011;2451;49.970;9.068;2022-11-14T05:54:37;33.80;;;19.13;;
4873;SDS011;2451;49.970;9.068;2022-11-14T05:57:03;33.70;;;20.50;;
4873;SDS011;2451;49.970;9.068;2022-11-14T05:59:29;35.53;;;20.05;;
4873;SDS011;2451;49.970;9.068;2022-11-14T06:01:54;34.58;;;20.75;;
4873;SDS011;2451;49.970;9.068;2022-11-14T06:04:20;37.15;;;21.55;;
4873;SDS011;2451;49.970;9.068;2022-11-14T06:06:46;36.65;;;20.85;;
4873;SDS011;2451;49.970;9.068;2022-11-14T06:09:12;34.22;;;20.77;;
4873;SDS011;2451;49.970;9.068;2022-11-14T06:11:37;37.33;;;21.10;;
4873;SDS011;2451;49.970;9.068;2022-11-14T06:14:03;40.17;;;21.02;;
4873;SDS011;2451;49.970;9.068;2022-11-14T06:16:28;36.72;;;19.58;;
4873;SDS011;2451;49.970;9.068;2022-11-14T06:18:54;34.80;;;19.27;;
4873;SDS011;2451;49.970;9.068;2022-11-14T06:21:20;35.00;;;20.02;;
4873;SDS011;2451;49.970;9.068;2022-11-14T06:23:48;38.15;;;20.85;;
4873;SDS011;2451;49.970;9.068;2022-11-14T06:28:50;37.40;;;18.95;;
4873;SDS011;2451;49.970;9.068;2022-11-14T06:31:17;35.53;;;19.45;;
4873;SDS011;2451;49.970;9.068;2022-11-14T06:33:43;35.90;;;18.95;;
4873;SDS011;2451;49.970;9.068;2022-11-14T06:36:10;35.00;;;19.73;;
4873;SDS011;2451;49.970;9.068;2022-11-14T06:38:37;35.13;;;19.17;;
4873;SDS011;2451;49.970;9.068;2022-11-14T06:41:07;35.28;;;20.58;;
4873;SDS011;2451;49.970;9.068;2022-11-14T06:43:38;34.22;;;19.23;;
4873;SDS011;2451;49.970;9.068;2022-11-14T06:46:05;33.58;;;19.48;;
4873;SDS011;2451;49.970;9.068;2022-11-14T06:48:33;32.95;;;19.02;;
4873;SDS011;2451;49.970;9.068;2022-11-14T06:50:59;33.05;;;19.48;;
4873;SDS011;2451;49.970;9.068;2022-11-14T06:53:26;36.10;;;19.92;;
4873;SDS011;2451;49.970;9.068;2022-11-14T06:55:55;36.13;;;19.75;;
4873;SDS011;2451;49.970;9.068;2022-11-14T06:58:28;35.40;;;19.08;;
4873;SDS011;2451;49.970;9.068;2022-11-14T07:00:55;35.80;;;18.92;;
4873;SDS011;2451;49.970;9.068;2022-11-14T07:03:21;33.78;;;19.45;;
4873;SDS011;2451;49.970;9.068;2022-11-14T07:05:47;33.72;;;18.65;;
4873;SDS011;2451;49.970;9.068;2022-11-14T07:08:13;35.65;;;19.67;;
4873;SDS011;2451;49.970;9.068;2022-11-14T07:10:39;32.35;;;18.30;;
4873;SDS011;2451;49.970;9.068;2022-11-14T07:13:05;33.58;;;18.60;;
4873;SDS011;2451;49.970;9.068;2022-11-14T07:15:31;34.38;;;19.02;;
4873;SDS011;2451;49.970;9.068;2022-11-14T07:17:57;36.78;;;19.10;;
4873;SDS011;2451;49.970;9.068;2022-11-14T07:20:23;34.95;;;19.10;;
4873;SDS011;2451;49.970;9.068;2022-11-14T07:22:49;35.60;;;18.52;;
4873;SDS011;2451;49.970;9.068;2022-11-14T07:25:14;31.75;;;17.42;;
4873;SDS011;2451;49.970;9.068;2022-11-14T07:27:40;31.08;;;17.85;;
4873;SDS011;2451;49.970;9.068;2022-11-14T07:30:05;32.10;;;17.88;;
4873;SDS011;2451;49.970;9.068;2022-11-14T07:32:31;33.00;;;18.83;;
4873;SDS011;2451;49.970;9.068;2022-11-14T07:34:57;32.72;;;18.30;;
4873;SDS011;2451;49.970;9.068;2022-11-14T07:37:25;33.55;;;17.10;;
4873;SDS011;2451;49.970;9.068;2022-11-14T07:39:51;29.85;;;17.38;;
4873;SDS011;2451;49.970;9.068;2022-11-14T07:42:16;31.83;;;16.92;;
4873;SDS011;2451;49.970;9.068;2022-11-14T07:44:42;28.40;;;16.05;;
4873;SDS011;2451;49.970;9.068;2022-11-14T07:47:07;27.88;;;16.55;;
4873;SDS011;2451;49.970;9.068;2022-11-14T07:49:33;32.50;;;17.70;;
4873;SDS011;2451;49.970;9.068;2022-11-14T07:51:58;31.98;;;17.85;;
4873;SDS011;2451;49.970;9.068;2022-11-14T07:54:24;29.70;;;16.88;;
4873;SDS011;2451;49.970;9.068;2022-11-14T07:56:50;29.35;;;16.40;;
4873;SDS011;2451;49.970;9.068;2022-11-14T07:59:15;31.13;;;16.88;;
4873;SDS011;2451;49.970;9.068;2022-11-14T08:01:41;29.55;;;16.23;;
4873;SDS011;2451;49.970;9.068;2022-11-14T08:04:07;30.10;;;17.13;;
4873;SDS011;2451;49.970;9.068;2022-11-14T08:06:32;28.85;;;17.40;;
4873;SDS011;2451;49.970;9.068;2022-11-14T08:08:58;29.90;;;15.88;;
4873;SDS011;2451;49.970;9.068;2022-11-14T08:11:23;28.70;;;15.02;;
4873;SDS011;2451;49.970;9.068;2022-11-14T08:14:08;29.48;;;16.05;;
4873;SDS011;2451;49.970;9.068;2022-11-14T08:16:33;26.52;;;15.45;;
4873;SDS011;2451;49.970;9.068;2022-11-14T08:18:59;26.23;;;15.35;;
4873;SDS011;2451;49.970;9.068;2022-11-14T08:21:25;25.92;;;15.15;;
4873;SDS011;2451;49.970;9.068;2022-11-14T08:23:50;26.65;;;15.85;;
4873;SDS011;2451;49.970;9.068;2022-11-14T08:26:16;27.65;;;15.32;;
4873;SDS011;2451;49.970;9.068;2022-11-14T08:28:41;27.05;;;15.52;;
4873;SDS011;2451;49.970;9.068;2022-11-14T08:31:07;25.67;;;14.20;;
4873;SDS011;2451;49.970;9.068;2022-11-14T08:33:34;23.25;;;13.75;;
4873;SDS011;2451;49.970;9.068;2022-11-14T08:36:03;25.30;;;13.82;;
4873;SDS011;2451;49.970;9.068;2022-11-14T08:38:30;25.73;;;14.82;;
4873;SDS011;2451;49.970;9.068;2022-11-14T08:40:57;24.45;;;14.32;;
4873;SDS011;2451;49.970;9.068;2022-11-14T08:43:26;22.75;;;13.52;;
4873;SDS011;2451;49.970;9.068;2022-11-14T08:45:51;24.65;;;13.75;;
4873;SDS011;2451;49.970;9.068;2022-11-14T08:48:20;27.02;;;15.90;;
4873;SDS011;2451;49.970;9.068;2022-11-14T08:50:46;24.98;;;15.07;;
4873;SDS011;2451;49.970;9.068;2022-11-14T08:53:11;24.30;;;14.85;;
4873;SDS011;2451;49.970;9.068;2022-11-14T08:55:42;22.33;;;13.75;;
4873;SDS011;2451;49.970;9.068;2022-11-14T08:58:11;21.55;;;13.95;;
4873;SDS011;2451;49.970;9.068;2022-11-14T09:00:36;22.33;;;14.10;;
4873;SDS011;2451;49.970;9.068;2022-11-14T09:03:08;22.05;;;13.30;;
4873;SDS011;2451;49.970;9.068;2022-11-14T09:05:37;22.25;;;13.73;;
4873;SDS011;2451;49.970;9.068;2022-11-14T09:08:03;21.08;;;13.32;;
4873;SDS011;2451;49.970;9.068;2022-11-14T09:10:29;21.08;;;13.80;;
4873;SDS011;2451;49.970;9.068;2022-11-14T09:12:55;21.52;;;14.13;;
4873;SDS011;2451;49.970;9.068;2022-11-14T09:15:21;20.77;;;13.52;;
4873;SDS011;2451;49.970;9.068;2022-11-14T09:17:47;20.40;;;12.73;;
4873;SDS011;2451;49.970;9.068;2022-11-14T09:20:13;20.23;;;12.90;;
4873;SDS011;2451;49.970;9.068;2022-11-14T09:22:39;18.38;;;12.52;;
4873;SDS011;2451;49.970;9.068;2022-11-14T09:25:05;20.55;;;11.68;;
4873;SDS011;2451;49.970;9.068;2022-11-14T09:27:31;18.77;;;11.88;;
4873;SDS011;2451;49.970;9.068;2022-11-14T09:29:56;20.60;;;13.15;;
4873;SDS011;2451;49.970;9.068;2022-11-14T09:32:22;18.55;;;12.15;;
4873;SDS011;2451;49.970;9.068;2022-11-14T09:34:47;17.15;;;11.80;;
4873;SDS011;2451;49.970;9.068;2022-11-14T09:37:13;16.75;;;12.27;;
4873;SDS011;2451;49.970;9.068;2022-11-14T09:39:38;16.13;;;11.60;;
4873;SDS011;2451;49.970;9.068;2022-11-14T09:44:58;18.85;;;12.15;;
4873;SDS011;2451;49.970;9.068;2022-11-14T09:47:30;17.23;;;11.70;;
4873;SDS011;2451;49.970;9.068;2022-11-14T09:50:23;18.42;;;11.77;;
4873;SDS011;2451;49.970;9.068;2022-11-14T09:52:56;16.63;;;11.70;;
4873;SDS011;2451;49.970;9.068;2022-11-14T09:55:28;17.20;;;11.25;;
4873;SDS011;2451;49.970;9.068;2022-11-14T09:57:55;18.13;;;11.82;;
4873;SDS011;2451;49.970;9.068;2022-11-14T10:00:25;14.73;;;10.65;;
4873;SDS011;2451;49.970;9.068;2022-11-14T10:03:07;17.70;;;11.63;;
4873;SDS011;2451;49.970;9.068;2022-11-14T10:05:50;16.80;;;11.70;;
4873;SDS011;2451;49.970;9.068;2022-11-14T10:14:30;14.65;;;10.20;;
4873;SDS011;2451;49.970;9.068;2022-11-14T10:19:57;14.52;;;9.23;;
4873;SDS011;2451;49.970;9.068;2022-11-14T10:23:09;13.95;;;10.10;;
4873;SDS011;2451;49.970;9.068;2022-11-14T10:37:02;14.48;;;8.73;;
4873;SDS011;2451;49.970;9.068;2022-11-14T10:39:33;12.20;;;8.97;;
4873;SDS011;2451;49.970;9.068;2022-11-14T10:42:07;12.05;;;8.60;;
4873;SDS011;2451;49.970;9.068;2022-11-14T10:44:56;13.60;;;8.88;;
4873;SDS011;2451;49.970;9.068;2022-11-14T10:47:39;11.30;;;8.40;;
4873;SDS011;2451;49.970;9.068;2022-11-14T10:50:14;12.93;;;8.75;;
4873;SDS011;2451;49.970;9.068;2022-11-14T10:52:42;12.18;;;8.25;;
4873;SDS011;2451;49.970;9.068;2022-11-14T10:55:16;12.20;;;7.90;;
4873;SDS011;2451;49.970;9.068;2022-11-14T10:57:44;10.10;;;7.53;;
4873;SDS011;2451;49.970;9.068;2022-11-14T11:00:11;11.75;;;8.10;;
4873;SDS011;2451;49.970;9.068;2022-11-14T11:02:45;12.40;;;8.43;;
4873;SDS011;2451;49.970;9.068;2022-11-14T11:05:14;11.50;;;7.85;;
4873;SDS011;2451;49.970;9.068;2022-11-14T11:07:44;10.98;;;6.72;;
4873;SDS011;2451;49.970;9.068;2022-11-14T11:10:30;11.60;;;7.68;;
4873;SDS011;2451;49.970;9.068;2022-11-14T11:13:28;11.70;;;7.18;;
4873;SDS011;2451;49.970;9.068;2022-11-14T11:15:56;9.23;;;7.22;;
4873;SDS011;2451;49.970;9.068;2022-11-14T11:18:26;11.63;;;8.02;;
4873;SDS011;2451;49.970;9.068;2022-11-14T11:21:08;11.82;;;7.93;;
4873;SDS011;2451;49.970;9.068;2022-11-14T11:23:36;11.05;;;7.40;;
4873;SDS011;2451;49.970;9.068;2022-11-14T11:28:44;9.88;;;7.15;;
4873;SDS011;2451;49.970;9.068;2022-11-14T11:31:28;9.50;;;6.95;;
4873;SDS011;2451;49.970;9.068;2022-11-14T11:34:24;10.13;;;6.93;;
4873;SDS011;2451;49.970;9.068;2022-11-14T11:36:53;9.98;;;6.75;;
4873;SDS011;2451;49.970;9.068;2022-11-14T11:39:24;9.95;;;6.50;;
4873;SDS011;2451;49.970;9.068;2022-11-14T11:41:53;9.70;;;6.63;;
4873;SDS011;2451;49.970;9.068;2022-11-14T11:44:22;9.87;;;6.30;;
4873;SDS011;2451;49.970;9.068;2022-11-14T11:46:58;10.93;;;7.55;;
4873;SDS011;2451;49.970;9.068;2022-11-14T11:52:12;10.23;;;6.95;;
4873;SDS011;2451;49.970;9.068;2022-11-14T11:54:55;12.57;;;7.55;;
4873;SDS011;2451;49.970;9.068;2022-11-14T11:57:42;9.80;;;6.40;;
4873;SDS011;2451;49.970;9.068;2022-11-14T12:00:18;9.55;;;6.20;;
4873;SDS011;2451;49.970;9.068;2022-11-14T12:02:46;11.00;;;7.40;;
4873;SDS011;2451;49.970;9.068;2022-11-14T12:08:05;9.48;;;5.68;;
4873;SDS011;2451;49.970;9.068;2022-11-14T12:10:36;10.27;;;6.68;;
4873;SDS011;2451;49.970;9.068;2022-11-14T12:13:23;12.18;;;6.90;;
4873;SDS011;2451;49.970;9.068;2022-11-14T12:16:05;10.00;;;6.13;;
4873;SDS011;2451;49.970;9.068;2022-11-14T12:21:43;9.35;;;6.22;;
4873;SDS011;2451;49.970;9.068;2022-11-14T12:32:33;10.93;;;6.45;;
4873;SDS011;2451;49.970;9.068;2022-11-14T12:35:04;9.45;;;6.53;;
4873;SDS011;2451;49.970;9.068;2022-11-14T12:37:42;9.80;;;6.57;;
4873;SDS011;2451;49.970;9.068;2022-11-14T12:40:29;10.43;;;6.93;;
4873;SDS011;2451;49.970;9.068;2022-11-14T12:42:56;9.90;;;6.68;;
4873;SDS011;2451;49.970;9.068;2022-11-14T12:46:06;10.13;;;6.10;;
4873;SDS011;2451;49.970;9.068;2022-11-14T12:48:21;11.70;;;6.70;;
4873;SDS011;2451;49.970;9.068;2022-11-14T12:50:50;11.45;;;6.63;;
4873;SDS011;2451;49.970;9.068;2022-11-14T12:58:49;9.82;;;6.57;;
4873;SDS011;2451;49.970;9.068;2022-11-14T13:04:11;8.55;;;6.38;;
4873;SDS011;2451;49.970;9.068;2022-11-14T13:11:35;10.45;;;6.50;;
4873;SDS011;2451;49.970;9.068;2022-11-14T13:14:22;10.23;;;6.47;;
4873;SDS011;2451;49.970;9.068;2022-11-14T13:47:39;9.38;;;6.35;;
4873;SDS011;2451;49.970;9.068;2022-11-14T13:50:17;10.98;;;6.38;;
4873;SDS011;2451;49.970;9.068;2022-11-14T13:52:49;10.93;;;6.60;;
4873;SDS011;2451;49.970;9.068;2022-11-14T13:58:23;10.25;;;6.68;;
4873;SDS011;2451;49.970;9.068;2022-11-14T14:01:14;13.05;;;7.82;;
4873;SDS011;2451;49.970;9.068;2022-11-14T14:03:50;11.02;;;7.55;;
4873;SDS011;2451;49.970;9.068;2022-11-14T14:11:49;11.13;;;8.20;;
4873;SDS011;2451;49.970;9.068;2022-11-14T14:17:26;12.13;;;7.50;;
4873;SDS011;2451;49.970;9.068;2022-11-14T14:20:04;12.63;;;8.18;;
4873;SDS011;2451;49.970;9.068;2022-11-14T14:28:18;10.23;;;7.68;;
4873;SDS011;2451;49.970;9.068;2022-11-14T14:31:02;11.40;;;7.97;;
4873;SDS011;2451;49.970;9.068;2022-11-14T14:33:47;14.15;;;8.00;;
4873;SDS011;2451;49.970;9.068;2022-11-14T14:36:24;8.80;;;6.38;;
4873;SDS011;2451;49.970;9.068;2022-11-14T14:41:38;10.30;;;6.45;;
4873;SDS011;2451;49.970;9.068;2022-11-14T14:44:05;9.35;;;5.72;;
4873;SDS011;2451;49.970;9.068;2022-11-14T14:46:41;9.55;;;5.70;;
4873;SDS011;2451;49.970;9.068;2022-11-14T14:49:07;9.43;;;6.80;;
4873;SDS011;2451;49.970;9.068;2022-11-14T14:51:33;9.15;;;6.47;;
4873;SDS011;2451;49.970;9.068;2022-11-14T14:54:00;8.77;;;6.22;;
4873;SDS011;2451;49.970;9.068;2022-11-14T14:56:26;8.82;;;6.72;;
4873;SDS011;2451;49.970;9.068;2022-11-14T14:58:52;10.77;;;7.20;;
4873;SDS011;2451;49.970;9.068;2022-11-14T15:01:19;10.07;;;7.45;;
4873;SDS011;2451;49.970;9.068;2022-11-14T15:03:55;13.07;;;7.60;;
4873;SDS011;2451;49.970;9.068;2022-11-14T15:06:26;8.40;;;6.43;;
4873;SDS011;2451;49.970;9.068;2022-11-14T15:08:59;8.80;;;6.00;;
4873;SDS011;2451;49.970;9.068;2022-11-14T15:11:26;10.48;;;6.57;;
4873;SDS011;2451;49.970;9.068;2022-11-14T15:13:54;9.80;;;7.45;;
4873;SDS011;2451;49.970;9.068;2022-11-14T15:16:22;9.07;;;6.53;;
4873;SDS011;2451;49.970;9.068;2022-11-14T15:18:49;10.70;;;7.13;;
4873;SDS011;2451;49.970;9.068;2022-11-14T15:23:56;10.27;;;6.47;;
4873;SDS011;2451;49.970;9.068;2022-11-14T15:26:43;10.02;;;6.45;;
4873;SDS011;2451;49.970;9.068;2022-11-14T15:29:15;8.27;;;5.80;;
4873;SDS011;2451;49.970;9.068;2022-11-14T15:31:46;8.32;;;6.47;;
4873;SDS011;2451;49.970;9.068;2022-11-14T15:34:27;9.40;;;6.20;;
4873;SDS011;2451;49.970;9.068;2022-11-14T15:37:05;9.68;;;6.22;;
4873;SDS011;2451;49.970;9.068;2022-11-14T15:39:43;10.13;;;6.50;;
4873;SDS011;2451;49.970;9.068;2022-11-14T15:44:52;10.07;;;6.68;;
4873;SDS011;2451;49.970;9.068;2022-11-14T15:47:26;9.15;;;6.28;;
4873;SDS011;2451;49.970;9.068;2022-11-14T15:52:39;8.65;;;6.25;;
4873;SDS011;2451;49.970;9.068;2022-11-14T15:55:18;14.68;;;8.95;;
4873;SDS011;2451;49.970;9.068;2022-11-14T15:57:45;23.77;;;15.65;;
4873;SDS011;2451;49.970;9.068;2022-11-14T16:00:12;12.93;;;9.60;;
4873;SDS011;2451;49.970;9.068;2022-11-14T16:02:42;10.18;;;7.45;;
4873;SDS011;2451;49.970;9.068;2022-11-14T16:05:12;9.45;;;6.65;;
4873;SDS011;2451;49.970;9.068;2022-11-14T16:07:39;11.23;;;7.22;;
4873;SDS011;2451;49.970;9.068;2022-11-14T16:10:09;11.07;;;6.22;;
4873;SDS011;2451;49.970;9.068;2022-11-14T16:12:39;12.80;;;9.55;;
4873;SDS011;2451;49.970;9.068;2022-11-14T16:15:05;16.38;;;10.77;;
4873;SDS011;2451;49.970;9.068;2022-11-14T16:17:37;15.95;;;10.95;;
4873;SDS011;2451;49.970;9.068;2022-11-14T16:20:04;11.57;;;7.72;;
4873;SDS011;2451;49.970;9.068;2022-11-14T16:22:32;11.88;;;7.45;;
4873;SDS011;2451;49.970;9.068;2022-11-14T16:24:58;9.70;;;7.40;;
4873;SDS011;2451;49.970;9.068;2022-11-14T16:27:24;10.77;;;7.40;;
4873;SDS011;2451;49.970;9.068;2022-11-14T16:29:50;12.63;;;7.38;;
4873;SDS011;2451;49.970;9.068;2022-11-14T16:32:16;22.13;;;12.27;;
4873;SDS011;2451;49.970;9.068;2022-11-14T16:34:42;17.45;;;12.30;;
4873;SDS011;2451;49.970;9.068;2022-11-14T16:37:10;15.32;;;10.75;;
4873;SDS011;2451;49.970;9.068;2022-11-14T16:39:37;21.60;;;13.68;;
4873;SDS011;2451;49.970;9.068;2022-11-14T16:42:03;26.55;;;19.00;;
4873;SDS011;2451;49.970;9.068;2022-11-14T16:44:29;30.27;;;21.40;;
4873;SDS011;2451;49.970;9.068;2022-11-14T16:46:55;15.40;;;10.02;;
4873;SDS011;2451;49.970;9.068;2022-11-14T16:49:20;10.10;;;6.85;;
4873;SDS011;2451;49.970;9.068;2022-11-14T16:51:48;11.40;;;9.10;;
4873;SDS011;2451;49.970;9.068;2022-11-14T16:54:15;11.13;;;7.28;;
4873;SDS011;2451;49.970;9.068;2022-11-14T16:56:44;9.02;;;6.30;;
4873;SDS011;2451;49.970;9.068;2022-11-14T16:59:10;9.30;;;6.57;;
4873;SDS011;2451;49.970;9.068;2022-11-14T17:01:36;9.90;;;6.07;;
4873;SDS011;2451;49.970;9.068;2022-11-14T17:04:02;8.40;;;5.93;;
4873;SDS011;2451;49.970;9.068;2022-11-14T17:06:28;8.55;;;5.40;;